createdAt,value
2022-08-01T00:00:42.508Z,4.00
2022-08-01T00:01:42.506Z,3.70
2022-08-01T00:02:42.596Z,3.80
2022-08-01T00:03:42.505Z,3.80
2022-08-01T00:04:42.504Z,3.80
2022-08-01T00:05:42.502Z,4.10
2022-08-01T00:06:42.502Z,3.90
2022-08-01T00:07:42.508Z,3.50
2022-08-01T00:08:42.497Z,3.10
2022-08-01T00:09:42.500Z,3.90
2022-08-01T00:10:42.495Z,4.10
2022-08-01T00:11:42.493Z,4.10
2022-08-01T00:12:42.490Z,3.70
2022-08-01T00:13:42.492Z,4.70
2022-08-01T00:14:42.491Z,5.30
2022-08-01T00:15:51.801Z,5.30
2022-08-01T00:16:42.492Z,4.20
2022-08-01T00:17:42.516Z,4.90
2022-08-01T00:18:42.483Z,4.80
2022-08-01T00:19:42.486Z,6.20
2022-08-01T00:20:42.483Z,4.90
2022-08-01T00:22:02.160Z,5.40
2022-08-01T00:22:42.474Z,4.00
2022-08-01T00:23:42.478Z,4.30
2022-08-01T00:24:42.470Z,5.40
2022-08-01T00:25:42.474Z,5.80
2022-08-01T00:26:42.474Z,7.10
2022-08-01T00:27:42.468Z,6.30
2022-08-01T00:28:42.479Z,4.90
2022-08-01T00:30:11.812Z,4.80
2022-08-01T00:30:42.465Z,5.30
2022-08-01T00:31:42.464Z,5.50
2022-08-01T00:32:42.467Z,6.10
2022-08-01T00:33:42.470Z,5.10
2022-08-01T00:34:42.459Z,4.90
2022-08-01T00:35:42.473Z,5.30
2022-08-01T00:36:42.453Z,5.90
2022-08-01T00:37:42.454Z,5.50
2022-08-01T00:38:42.454Z,5.80
2022-08-01T00:39:42.451Z,5.70
2022-08-01T00:40:42.449Z,6.70
2022-08-01T00:41:42.441Z,7.20
2022-08-01T00:42:43.823Z,5.70
2022-08-01T00:43:42.444Z,5.60
2022-08-01T00:44:42.438Z,5.70
2022-08-01T00:45:42.443Z,5.20
2022-08-01T00:46:42.441Z,5.90
2022-08-01T00:47:42.437Z,5.60
2022-08-01T00:48:42.429Z,5.80
2022-08-01T00:49:42.423Z,6.30
2022-08-01T00:50:42.427Z,5.80
2022-08-01T00:51:42.434Z,6.90
2022-08-01T00:52:42.420Z,5.50
2022-08-01T00:53:51.661Z,5.50
2022-08-01T00:54:42.434Z,5.60
2022-08-01T00:55:42.414Z,5.30
2022-08-01T00:56:42.409Z,5.50
2022-08-01T00:58:03.268Z,5.80
2022-08-01T00:58:42.405Z,5.10
2022-08-01T00:59:42.414Z,5.20
2022-08-01T01:00:54.145Z,5.10
2022-08-01T01:01:46.366Z,5.50
2022-08-01T01:02:42.401Z,5.50
2022-08-01T01:03:58.623Z,5.20
2022-08-01T01:04:42.395Z,5.20
2022-08-01T01:05:42.400Z,5.30
2022-08-01T01:06:42.391Z,5.60
2022-08-01T01:07:50.091Z,5.60
2022-08-01T01:08:42.386Z,4.90
2022-08-01T01:09:42.381Z,5.80
2022-08-01T01:10:42.382Z,5.70
2022-08-01T01:11:42.384Z,6.60
2022-08-01T01:12:42.820Z,7.00
2022-08-01T01:13:49.581Z,5.70
2022-08-01T01:14:42.382Z,5.60
2022-08-01T01:15:42.373Z,5.60
2022-08-01T01:16:42.373Z,5.10
2022-08-01T01:17:50.470Z,5.60
2022-08-01T01:18:42.366Z,5.20
2022-08-01T01:19:42.371Z,5.30
2022-08-01T01:20:42.370Z,5.40
2022-08-01T01:21:42.355Z,6.80
2022-08-01T01:22:42.356Z,5.70
2022-08-01T01:23:42.357Z,5.80
2022-08-01T01:24:42.353Z,6.10
2022-08-01T01:25:42.360Z,5.40
2022-08-01T01:26:42.351Z,5.90
2022-08-01T01:27:42.357Z,7.40
2022-08-01T01:28:42.353Z,6.90
2022-08-01T01:29:59.593Z,6.20
2022-08-01T01:30:42.342Z,6.30
2022-08-01T01:31:42.348Z,5.90
2022-08-01T01:32:42.336Z,5.80
2022-08-01T01:33:47.427Z,6.50
2022-08-01T01:34:42.337Z,6.30
2022-08-01T01:35:42.333Z,7.30
2022-08-01T01:36:42.339Z,7.30
2022-08-01T01:37:42.337Z,6.40
2022-08-01T01:38:42.328Z,6.10
2022-08-01T01:39:45.318Z,5.90
2022-08-01T01:40:42.325Z,5.80
2022-08-01T01:41:42.324Z,5.90
2022-08-01T01:42:42.323Z,7.40
2022-08-01T01:43:42.332Z,5.90
2022-08-01T01:44:42.321Z,6.30
2022-08-01T01:45:42.314Z,6.50
2022-08-01T01:46:42.314Z,6.40
2022-08-01T01:47:42.312Z,5.80
2022-08-01T01:48:42.312Z,6.30
2022-08-01T01:49:42.308Z,6.00
2022-08-01T01:50:42.313Z,7.40
2022-08-01T01:51:42.309Z,6.10
2022-08-01T01:52:42.301Z,6.30
2022-08-01T01:53:42.301Z,6.50
2022-08-01T01:54:42.306Z,7.00
2022-08-01T01:55:49.362Z,6.90
2022-08-01T01:56:42.292Z,6.20
2022-08-01T01:57:42.294Z,7.50
2022-08-01T01:58:42.294Z,6.80
2022-08-01T01:59:42.295Z,8.20
2022-08-01T02:00:42.294Z,7.60
2022-08-01T02:02:05.429Z,7.90
2022-08-01T02:02:42.400Z,7.80
2022-08-01T02:03:42.289Z,8.10
2022-08-01T02:04:42.281Z,7.40
2022-08-01T02:05:42.279Z,7.50
2022-08-01T02:06:42.278Z,7.00
2022-08-01T02:07:42.275Z,7.00
2022-08-01T02:08:42.271Z,6.60
2022-08-01T02:09:42.273Z,7.30
2022-08-01T02:10:42.269Z,7.60
2022-08-01T02:12:07.400Z,8.00
2022-08-01T02:12:42.266Z,7.40
2022-08-01T02:13:42.266Z,7.40
2022-08-01T02:14:42.270Z,7.30
2022-08-01T02:16:00.246Z,6.80
2022-08-01T02:16:42.260Z,6.60
2022-08-01T02:17:42.259Z,6.40
2022-08-01T02:18:42.259Z,6.60
2022-08-01T02:19:42.253Z,7.00
2022-08-01T02:20:42.252Z,7.10
2022-08-01T02:21:42.252Z,7.40
2022-08-01T02:22:42.249Z,7.60
2022-08-01T02:23:42.251Z,7.50
2022-08-01T02:24:42.249Z,6.70
2022-08-01T02:26:10.470Z,8.20
2022-08-01T02:26:42.246Z,7.00
2022-08-01T02:27:42.243Z,6.90
2022-08-01T02:28:42.241Z,7.10
2022-08-01T02:29:42.239Z,7.10
2022-08-01T02:30:42.231Z,7.00
2022-08-01T02:31:42.231Z,7.00
2022-08-01T02:32:42.232Z,7.70
2022-08-01T02:33:42.230Z,7.20
2022-08-01T02:34:42.233Z,7.20
2022-08-01T02:36:30.414Z,7.30
2022-08-01T02:36:42.224Z,7.20
2022-08-01T02:37:44.424Z,6.60
2022-08-01T02:38:42.223Z,6.80
2022-08-01T02:39:42.219Z,5.90
2022-08-01T02:40:42.217Z,6.50
2022-08-01T02:41:42.220Z,6.20
2022-08-01T02:42:42.214Z,6.30
2022-08-01T02:43:42.214Z,6.30
2022-08-01T02:44:42.214Z,6.40
2022-08-01T02:45:42.208Z,6.50
2022-08-01T02:46:42.207Z,6.40
2022-08-01T02:47:42.211Z,8.30
2022-08-01T02:48:42.203Z,7.40
2022-08-01T02:49:42.209Z,7.20
2022-08-01T02:50:42.199Z,7.80
2022-08-01T02:51:42.202Z,7.10
2022-08-01T02:52:42.195Z,7.70
2022-08-01T02:53:44.683Z,6.90
2022-08-01T02:54:42.189Z,7.10
2022-08-01T02:55:42.190Z,7.60
2022-08-01T02:56:42.188Z,7.60
2022-08-01T02:57:51.318Z,7.70
2022-08-01T02:58:42.188Z,6.90
2022-08-01T02:59:42.195Z,7.10
2022-08-01T03:00:42.180Z,7.20
2022-08-01T03:01:42.320Z,7.00
2022-08-01T03:02:42.181Z,6.50
2022-08-01T03:03:42.176Z,7.20
2022-08-01T03:04:42.174Z,7.00
2022-08-01T03:05:42.171Z,6.70
2022-08-01T03:06:45.009Z,6.70
2022-08-01T03:07:42.168Z,6.90
2022-08-01T03:08:42.163Z,6.70
2022-08-01T03:09:42.161Z,7.20
2022-08-01T03:10:42.175Z,7.00
2022-08-01T03:11:42.162Z,7.30
2022-08-01T03:12:42.163Z,7.20
2022-08-01T03:13:42.158Z,5.90
2022-08-01T03:14:42.154Z,6.10
2022-08-01T03:15:42.154Z,6.30
2022-08-01T03:16:42.153Z,6.40
2022-08-01T03:17:42.145Z,7.10
2022-08-01T03:18:42.147Z,6.40
2022-08-01T03:19:42.147Z,6.40
2022-08-01T03:20:42.145Z,6.80
2022-08-01T03:21:42.148Z,6.40
2022-08-01T03:22:42.141Z,6.90
2022-08-01T03:23:42.139Z,7.00
2022-08-01T03:24:42.141Z,6.40
2022-08-01T03:25:42.135Z,6.80
2022-08-01T03:26:42.133Z,6.80
2022-08-01T03:27:42.133Z,6.80
2022-08-01T03:28:42.128Z,6.40
2022-08-01T03:29:42.122Z,6.90
2022-08-01T03:30:42.129Z,7.00
2022-08-01T03:31:42.124Z,7.40
2022-08-01T03:32:42.122Z,6.60
2022-08-01T03:33:42.130Z,7.70
2022-08-01T03:34:42.118Z,6.70
2022-08-01T03:35:42.117Z,7.30
2022-08-01T03:36:42.116Z,7.20
2022-08-01T03:38:00.035Z,7.60
2022-08-01T03:38:42.111Z,7.40
2022-08-01T03:39:42.119Z,6.90
2022-08-01T03:40:42.109Z,6.60
2022-08-01T03:41:42.103Z,6.70
2022-08-01T03:42:42.103Z,6.70
2022-08-01T03:43:42.110Z,6.80
2022-08-01T03:44:42.101Z,7.00
2022-08-01T03:45:42.097Z,7.00
2022-08-01T03:46:42.096Z,7.10
2022-08-01T03:47:44.594Z,6.80
2022-08-01T03:48:42.095Z,6.50
2022-08-01T03:49:42.090Z,7.90
2022-08-01T03:50:42.092Z,6.90
2022-08-01T03:51:42.087Z,6.50
2022-08-01T03:52:42.083Z,6.70
2022-08-01T03:53:42.458Z,6.30
2022-08-01T03:54:42.082Z,6.30
2022-08-01T03:55:42.081Z,6.20
2022-08-01T03:56:42.083Z,6.10
2022-08-01T03:57:42.076Z,7.40
2022-08-01T03:58:42.074Z,6.90
2022-08-01T03:59:42.079Z,6.90
2022-08-01T04:00:42.068Z,6.70
2022-08-01T04:01:42.129Z,7.10
2022-08-01T04:02:42.074Z,6.70
2022-08-01T04:03:43.231Z,6.30
2022-08-01T04:04:42.061Z,6.40
2022-08-01T04:05:42.061Z,6.90
2022-08-01T04:06:42.073Z,6.30
2022-08-01T04:07:42.057Z,6.20
2022-08-01T04:08:42.058Z,7.10
2022-08-01T04:09:42.058Z,8.00
2022-08-01T04:10:42.053Z,6.70
2022-08-01T04:11:42.075Z,7.60
2022-08-01T04:12:42.051Z,8.30
2022-08-01T04:13:44.332Z,8.20
2022-08-01T04:14:42.052Z,8.50
2022-08-01T04:15:42.047Z,8.10
2022-08-01T04:16:42.045Z,8.90
2022-08-01T04:17:42.040Z,8.00
2022-08-01T04:18:42.041Z,9.40
2022-08-01T04:19:42.036Z,8.90
2022-08-01T04:20:42.039Z,8.40
2022-08-01T04:21:42.038Z,8.70
2022-08-01T04:22:42.035Z,7.40
2022-08-01T04:23:42.031Z,8.50
2022-08-01T04:24:42.028Z,8.30
2022-08-01T04:25:42.030Z,9.10
2022-08-01T04:26:42.020Z,7.60
2022-08-01T04:27:50.079Z,9.60
2022-08-01T04:28:42.026Z,7.80
2022-08-01T04:29:42.020Z,10.20
2022-08-01T04:30:42.020Z,9.20
2022-08-01T04:31:42.024Z,10.40
2022-08-01T04:32:42.013Z,9.00
2022-08-01T04:33:42.011Z,9.00
2022-08-01T04:34:42.014Z,8.60
2022-08-01T04:36:02.187Z,9.00
2022-08-01T04:36:42.006Z,8.90
2022-08-01T04:37:42.006Z,9.70
2022-08-01T04:38:42.005Z,8.90
2022-08-01T04:39:50.747Z,9.90
2022-08-01T04:40:41.999Z,8.80
2022-08-01T04:41:41.999Z,8.80
2022-08-01T04:42:41.996Z,9.90
2022-08-01T04:43:44.230Z,9.90
2022-08-01T04:44:42.136Z,11.90
2022-08-01T04:45:41.996Z,9.90
2022-08-01T04:46:41.997Z,10.40
2022-08-01T04:47:41.990Z,10.30
2022-08-01T04:48:41.986Z,10.30
2022-08-01T04:49:44.437Z,10.00
2022-08-01T04:50:41.979Z,10.70
2022-08-01T04:51:41.978Z,10.50
2022-08-01T04:52:41.978Z,10.50
2022-08-01T04:53:41.975Z,9.60
2022-08-01T04:54:41.978Z,10.00
2022-08-01T04:55:41.986Z,11.00
2022-08-01T04:56:41.971Z,11.60
2022-08-01T04:57:41.972Z,13.80
2022-08-01T04:58:41.968Z,11.70
2022-08-01T04:59:41.966Z,12.40
2022-08-01T05:00:41.964Z,12.40
2022-08-01T05:01:42.704Z,11.50
2022-08-01T05:02:41.962Z,10.70
2022-08-01T05:03:41.959Z,12.30
2022-08-01T05:04:41.956Z,11.70
2022-08-01T05:05:41.961Z,13.30
2022-08-01T05:06:41.959Z,14.00
2022-08-01T05:07:45.132Z,14.40
2022-08-01T05:08:41.969Z,12.90
2022-08-01T05:09:41.948Z,13.30
2022-08-01T05:10:41.980Z,14.10
2022-08-01T05:11:41.944Z,13.20
2022-08-01T05:12:41.944Z,13.60
2022-08-01T05:13:41.940Z,15.00
2022-08-01T05:14:41.937Z,14.60
2022-08-01T05:15:41.936Z,12.20
2022-08-01T05:16:41.937Z,13.10
2022-08-01T05:17:41.934Z,13.00
2022-08-01T05:18:41.932Z,13.70
2022-08-01T05:19:41.930Z,13.20
2022-08-01T05:20:41.927Z,13.30
2022-08-01T05:21:41.928Z,14.50
2022-08-01T05:22:41.924Z,13.90
2022-08-01T05:23:43.597Z,12.30
2022-08-01T05:24:41.928Z,13.40
2022-08-01T05:25:56.593Z,12.50
2022-08-01T05:26:41.914Z,12.10
2022-08-01T05:27:41.917Z,12.50
2022-08-01T05:28:41.939Z,12.50
2022-08-01T05:29:44.820Z,12.50
2022-08-01T05:30:41.918Z,12.80
2022-08-01T05:31:41.908Z,13.50
2022-08-01T05:32:41.908Z,11.70
2022-08-01T05:33:41.909Z,11.50
2022-08-01T05:34:41.905Z,11.60
2022-08-01T05:35:48.296Z,11.60
2022-08-01T05:36:41.900Z,11.80
2022-08-01T05:37:41.895Z,11.20
2022-08-01T05:38:41.897Z,12.00
2022-08-01T05:39:41.897Z,11.80
2022-08-01T05:40:41.900Z,11.70
2022-08-01T05:41:41.892Z,11.10
2022-08-01T05:42:41.894Z,11.30
2022-08-01T05:43:41.889Z,11.00
2022-08-01T05:44:41.892Z,12.30
2022-08-01T05:45:41.887Z,11.40
2022-08-01T05:46:41.883Z,14.40
2022-08-01T05:47:43.199Z,11.60
2022-08-01T05:48:41.887Z,11.20
2022-08-01T05:49:41.875Z,11.50
2022-08-01T05:50:41.878Z,10.90
2022-08-01T05:51:41.876Z,11.60
2022-08-01T05:52:41.871Z,10.30
2022-08-01T05:53:41.881Z,10.50
2022-08-01T05:54:41.871Z,10.50
2022-08-01T05:55:41.869Z,11.10
2022-08-01T05:56:41.870Z,11.80
2022-08-01T05:57:41.864Z,10.90
2022-08-01T05:58:41.864Z,10.40
2022-08-01T05:59:41.863Z,10.30
2022-08-01T06:00:41.864Z,10.20
2022-08-01T06:01:41.898Z,10.20
2022-08-01T06:02:41.918Z,10.90
2022-08-01T06:03:41.856Z,10.70
2022-08-01T06:04:41.851Z,11.50
2022-08-01T06:05:41.854Z,10.40
2022-08-01T06:06:41.849Z,11.30
2022-08-01T06:07:41.850Z,10.30
2022-08-01T06:08:41.850Z,10.50
2022-08-01T06:09:41.845Z,10.00
2022-08-01T06:10:41.843Z,10.00
2022-08-01T06:11:41.843Z,10.30
2022-08-01T06:12:41.849Z,9.80
2022-08-01T06:13:44.894Z,10.10
2022-08-01T06:14:41.841Z,10.00
2022-08-01T06:15:41.835Z,11.00
2022-08-01T06:16:41.828Z,9.50
2022-08-01T06:17:41.854Z,8.90
2022-08-01T06:18:41.827Z,9.50
2022-08-01T06:19:41.830Z,8.90
2022-08-01T06:20:41.835Z,9.00
2022-08-01T06:21:41.826Z,8.90
2022-08-01T06:22:41.822Z,8.30
2022-08-01T06:23:41.825Z,8.00
2022-08-01T06:24:41.813Z,9.10
2022-08-01T06:25:41.815Z,9.10
2022-08-01T06:26:41.820Z,10.90
2022-08-01T06:27:41.816Z,9.40
2022-08-01T06:28:41.812Z,8.20
2022-08-01T06:29:41.822Z,9.20
2022-08-01T06:30:41.808Z,7.50
2022-08-01T06:31:41.815Z,8.30
2022-08-01T06:32:41.809Z,7.50
2022-08-01T06:33:41.806Z,6.80
2022-08-01T06:34:41.808Z,7.10
2022-08-01T06:35:41.806Z,7.20
2022-08-01T06:36:41.800Z,6.80
2022-08-01T06:37:41.800Z,6.10
2022-08-01T06:38:41.800Z,6.10
2022-08-01T06:39:41.805Z,6.40
2022-08-01T06:40:41.792Z,6.40
2022-08-01T06:41:41.796Z,7.20
2022-08-01T06:42:41.796Z,5.50
2022-08-01T06:43:41.798Z,5.20
2022-08-01T06:44:41.789Z,5.30
2022-08-01T06:45:41.787Z,5.10
2022-08-01T06:46:41.786Z,5.20
2022-08-01T06:47:41.788Z,4.80
2022-08-01T06:48:41.808Z,4.60
2022-08-01T06:49:41.780Z,5.40
2022-08-01T06:50:41.783Z,4.60
2022-08-01T06:51:41.781Z,4.90
2022-08-01T06:52:41.826Z,5.10
2022-08-01T06:53:41.780Z,4.40
2022-08-01T06:54:41.775Z,4.70
2022-08-01T06:55:41.789Z,5.80
2022-08-01T06:56:41.773Z,4.70
2022-08-01T06:57:41.771Z,4.60
2022-08-01T06:58:41.835Z,4.90
2022-08-01T06:59:41.769Z,4.40
2022-08-01T07:00:41.808Z,4.20
2022-08-01T07:01:41.761Z,5.80
2022-08-01T07:02:41.765Z,4.60
2022-08-01T07:03:54.338Z,4.50
2022-08-01T07:04:41.759Z,4.30
2022-08-01T07:05:41.761Z,4.40
2022-08-01T07:06:41.763Z,4.70
2022-08-01T07:07:41.760Z,4.30
2022-08-01T07:08:41.757Z,4.30
2022-08-01T07:09:41.759Z,4.30
2022-08-01T07:10:41.757Z,5.10
2022-08-01T07:11:41.756Z,5.20
2022-08-01T07:12:41.755Z,5.20
2022-08-01T07:13:44.389Z,5.20
2022-08-01T07:14:41.746Z,5.10
2022-08-01T07:15:41.745Z,5.00
2022-08-01T07:16:41.744Z,5.00
2022-08-01T07:17:41.742Z,5.60
2022-08-01T07:18:41.753Z,5.00
2022-08-01T07:19:41.739Z,4.90
2022-08-01T07:20:51.863Z,4.60
2022-08-01T07:21:41.961Z,4.50
2022-08-01T07:22:41.733Z,4.90
2022-08-01T07:23:43.601Z,4.70
2022-08-01T07:24:45.932Z,4.20
2022-08-01T07:25:41.728Z,4.10
2022-08-01T07:26:53.059Z,4.00
2022-08-01T07:27:41.727Z,3.80
2022-08-01T07:28:43.896Z,3.70
2022-08-01T07:29:41.726Z,3.70
2022-08-01T07:30:41.729Z,3.70
2022-08-01T07:31:41.722Z,3.70
2022-08-01T07:32:41.723Z,3.40
2022-08-01T07:33:48.516Z,4.40
2022-08-01T07:34:41.725Z,3.60
2022-08-01T07:35:41.715Z,3.50
2022-08-01T07:36:41.717Z,3.80
2022-08-01T07:37:47.637Z,4.30
2022-08-01T07:38:41.713Z,3.50
2022-08-01T07:39:41.713Z,4.10
2022-08-01T07:40:41.711Z,3.60
2022-08-01T07:41:52.740Z,3.40
2022-08-01T07:42:41.712Z,4.10
2022-08-01T07:43:47.212Z,3.80
2022-08-01T07:44:41.707Z,3.50
2022-08-01T07:45:46.364Z,3.70
2022-08-01T07:46:41.712Z,3.50
2022-08-01T07:47:41.704Z,3.20
2022-08-01T07:48:41.706Z,3.20
2022-08-01T07:49:41.767Z,3.70
2022-08-01T07:50:41.712Z,3.60
2022-08-01T07:51:41.728Z,3.50
2022-08-01T07:52:41.699Z,3.40
2022-08-01T07:53:41.701Z,3.30
2022-08-01T07:54:41.695Z,3.70
2022-08-01T07:55:41.701Z,3.40
2022-08-01T07:56:41.700Z,4.10
2022-08-01T07:57:41.738Z,3.50
2022-08-01T07:58:41.697Z,4.30
2022-08-01T07:59:41.700Z,3.60
2022-08-01T08:00:41.691Z,3.60
2022-08-01T08:01:41.739Z,3.70
2022-08-01T08:02:41.696Z,3.90
2022-08-01T08:03:41.691Z,3.90
2022-08-01T08:04:45.686Z,4.20
2022-08-01T08:05:51.324Z,4.00
2022-08-01T08:06:41.685Z,3.70
2022-08-01T08:07:41.702Z,3.90
2022-08-01T08:08:41.692Z,4.70
2022-08-01T08:09:41.680Z,3.00
2022-08-01T08:10:41.679Z,2.90
2022-08-01T08:11:45.757Z,2.90
2022-08-01T08:12:41.677Z,3.00
2022-08-01T08:13:41.674Z,2.70
2022-08-01T08:14:41.675Z,3.20
2022-08-01T08:15:41.675Z,3.00
2022-08-01T08:16:41.668Z,3.00
2022-08-01T08:17:41.668Z,2.60
2022-08-01T08:18:41.671Z,2.60
2022-08-01T08:19:41.666Z,2.90
2022-08-01T08:20:41.669Z,2.60
2022-08-01T08:21:41.665Z,2.60
2022-08-01T08:22:41.667Z,2.40
2022-08-01T08:23:43.817Z,2.20
2022-08-01T08:24:46.305Z,2.20
2022-08-01T08:25:41.664Z,2.20
2022-08-01T08:26:41.661Z,2.30
2022-08-01T08:27:41.663Z,2.40
2022-08-01T08:28:41.663Z,2.30
2022-08-01T08:29:41.660Z,2.50
2022-08-01T08:30:41.659Z,2.30
2022-08-01T08:31:52.648Z,2.20
2022-08-01T08:32:41.655Z,3.40
2022-08-01T08:33:41.657Z,2.20
2022-08-01T08:34:41.661Z,1.90
2022-08-01T08:35:53.684Z,1.60
2022-08-01T08:36:47.952Z,2.00
2022-08-01T08:37:47.565Z,2.50
2022-08-01T08:38:41.650Z,1.70
2022-08-01T08:39:42.445Z,2.00
2022-08-01T08:40:41.653Z,2.50
2022-08-01T08:41:41.657Z,1.90
2022-08-01T08:42:41.650Z,2.00
2022-08-01T08:43:41.650Z,1.70
2022-08-01T08:44:43.393Z,1.90
2022-08-01T08:45:58.948Z,1.80
2022-08-01T08:46:41.665Z,1.90
2022-08-01T08:47:41.656Z,1.70
2022-08-01T08:48:41.650Z,2.30
2022-08-01T08:49:43.628Z,1.70
2022-08-01T08:50:41.649Z,1.80
2022-08-01T08:51:41.654Z,2.30
2022-08-01T08:52:41.649Z,2.80
2022-08-01T08:53:41.649Z,2.10
2022-08-01T08:54:41.648Z,2.30
2022-08-01T08:55:55.514Z,1.90
2022-08-01T08:56:41.644Z,4.30
2022-08-01T08:57:41.720Z,3.30
2022-08-01T08:58:41.649Z,1.50
2022-08-01T08:59:41.648Z,1.80
2022-08-01T09:00:41.650Z,1.80
2022-08-01T09:01:41.648Z,1.90
2022-08-01T09:02:41.668Z,2.40
2022-08-01T09:03:41.902Z,1.80
2022-08-01T09:04:41.646Z,2.30
2022-08-01T09:05:41.649Z,1.70
2022-08-01T09:06:41.650Z,1.70
2022-08-01T09:07:41.676Z,2.80
2022-08-01T09:08:41.646Z,2.00
2022-08-01T09:09:42.048Z,1.20
2022-08-01T09:10:41.645Z,2.70
2022-08-01T09:11:41.644Z,2.00
2022-08-01T09:12:41.647Z,3.90
2022-08-01T09:13:45.233Z,2.40
2022-08-01T09:14:41.649Z,2.80
2022-08-01T09:15:41.647Z,2.20
2022-08-01T09:16:44.207Z,2.30
2022-08-01T09:17:41.648Z,1.80
2022-08-01T09:18:41.674Z,2.10
2022-08-01T09:19:42.058Z,1.70
2022-08-01T09:20:41.651Z,1.90
2022-08-01T09:21:41.647Z,1.60
2022-08-01T09:22:43.986Z,1.50
2022-08-01T09:23:53.835Z,1.60
2022-08-01T09:24:41.682Z,2.30
2022-08-01T09:25:46.240Z,2.80
2022-08-01T09:26:41.645Z,2.50
2022-08-01T09:27:44.130Z,2.90
2022-08-01T09:28:44.960Z,2.30
2022-08-01T09:29:41.648Z,1.80
2022-08-01T09:30:41.645Z,1.70
2022-08-01T09:31:41.648Z,1.60
2022-08-01T09:32:41.645Z,2.10
2022-08-01T09:33:41.647Z,1.80
2022-08-01T09:34:41.650Z,2.50
2022-08-01T09:35:43.263Z,2.50
2022-08-01T09:36:41.645Z,2.90
2022-08-01T09:37:41.646Z,3.00
2022-08-01T09:38:44.984Z,1.60
2022-08-01T09:39:41.653Z,1.70
2022-08-01T09:40:41.642Z,3.60
2022-08-01T09:41:41.656Z,2.00
2022-08-01T09:42:41.643Z,1.60
2022-08-01T09:43:41.645Z,2.20
2022-08-01T09:44:42.922Z,2.30
2022-08-01T09:45:45.677Z,3.60
2022-08-01T09:46:41.642Z,1.30
2022-08-01T09:47:41.644Z,1.40
2022-08-01T09:48:41.645Z,2.00
2022-08-01T09:49:49.645Z,2.20
2022-08-01T09:50:41.639Z,2.30
2022-08-01T09:51:59.506Z,1.70
2022-08-01T09:52:41.637Z,1.60
2022-08-01T09:53:41.639Z,1.70
2022-08-01T09:54:41.635Z,1.50
2022-08-01T09:55:41.641Z,2.20
2022-08-01T09:56:41.637Z,1.50
2022-08-01T09:57:41.632Z,1.60
2022-08-01T09:58:41.639Z,2.40
2022-08-01T09:59:57.711Z,2.50
2022-08-01T10:00:45.793Z,2.00
2022-08-01T10:01:41.630Z,2.30
2022-08-01T10:02:41.643Z,2.40
2022-08-01T10:03:41.718Z,2.80
2022-08-01T10:04:41.631Z,2.30
2022-08-01T10:05:41.630Z,4.50
2022-08-01T10:06:41.943Z,4.30
2022-08-01T10:07:43.175Z,1.90
2022-08-01T10:08:41.626Z,2.60
2022-08-01T10:09:41.631Z,4.50
2022-08-01T10:10:41.625Z,2.20
2022-08-01T10:11:41.628Z,2.50
2022-08-01T10:12:44.350Z,4.50
2022-08-01T10:13:41.625Z,2.90
2022-08-01T10:14:41.621Z,2.40
2022-08-01T10:15:41.624Z,3.50
2022-08-01T10:16:41.620Z,4.10
2022-08-01T10:17:49.944Z,4.40
2022-08-01T10:18:41.623Z,2.70
2022-08-01T10:19:41.619Z,2.30
2022-08-01T10:20:41.614Z,1.50
2022-08-01T10:21:57.020Z,2.20
2022-08-01T10:22:41.616Z,1.70
2022-08-01T10:23:41.617Z,2.60
2022-08-01T10:24:41.616Z,1.70
2022-08-01T10:25:44.028Z,1.90
2022-08-01T10:26:41.613Z,2.00
2022-08-01T10:27:41.647Z,2.60
2022-08-01T10:28:41.619Z,2.00
2022-08-01T10:29:45.886Z,1.80
2022-08-01T10:30:41.666Z,1.90
2022-08-01T10:31:41.612Z,1.70
2022-08-01T10:32:41.613Z,3.00
2022-08-01T10:33:51.513Z,1.50
2022-08-01T10:34:45.058Z,2.20
2022-08-01T10:35:47.587Z,2.70
2022-08-01T10:36:41.609Z,1.70
2022-08-01T10:37:52.027Z,4.00
2022-08-01T10:38:41.610Z,2.20
2022-08-01T10:39:41.617Z,1.90
2022-08-01T10:40:41.624Z,1.60
2022-08-01T10:41:41.646Z,1.80
2022-08-01T10:42:41.613Z,2.10
2022-08-01T10:43:41.616Z,1.60
2022-08-01T10:44:41.605Z,1.30
2022-08-01T10:45:41.606Z,1.50
2022-08-01T10:46:41.610Z,2.00
2022-08-01T10:47:50.853Z,1.80
2022-08-01T10:48:41.601Z,2.20
2022-08-01T10:49:41.640Z,3.10
2022-08-01T10:50:41.604Z,2.00
2022-08-01T10:51:52.024Z,1.50
2022-08-01T10:52:41.603Z,1.80
2022-08-01T10:53:43.004Z,1.50
2022-08-01T10:54:51.896Z,2.30
2022-08-01T10:55:41.602Z,1.40
2022-08-01T10:56:41.609Z,2.50
2022-08-01T10:57:41.607Z,2.60
2022-08-01T10:58:42.822Z,2.30
2022-08-01T10:59:50.751Z,1.40
2022-08-01T11:00:41.650Z,1.70
2022-08-01T11:01:43.525Z,2.30
2022-08-01T11:02:41.597Z,0.90
2022-08-01T11:03:56.865Z,1.60
2022-08-01T11:04:41.596Z,1.90
2022-08-01T11:05:41.593Z,2.20
2022-08-01T11:06:41.599Z,0.90
2022-08-01T11:07:41.601Z,1.80
2022-08-01T11:08:41.596Z,1.60
2022-08-01T11:09:41.594Z,1.10
2022-08-01T11:10:41.603Z,2.60
2022-08-01T11:11:41.595Z,2.40
2022-08-01T11:12:41.599Z,1.40
2022-08-01T11:13:41.594Z,2.40
2022-08-01T11:14:55.766Z,1.40
2022-08-01T11:15:50.371Z,2.10
2022-08-01T11:16:41.589Z,2.20
2022-08-01T11:17:42.221Z,1.90
2022-08-01T11:18:41.595Z,2.10
2022-08-01T11:19:41.586Z,1.90
2022-08-01T11:20:42.475Z,1.20
2022-08-01T11:21:58.062Z,1.60
2022-08-01T11:22:41.584Z,2.50
2022-08-01T11:23:41.709Z,1.30
2022-08-01T11:24:41.583Z,2.10
2022-08-01T11:26:06.724Z,1.90
2022-08-01T11:26:41.576Z,1.00
2022-08-01T11:27:41.574Z,1.80
2022-08-01T11:28:50.410Z,1.70
2022-08-01T11:29:41.578Z,1.20
2022-08-01T11:30:41.572Z,1.50
2022-08-01T11:31:41.576Z,2.70
2022-08-01T11:33:05.607Z,2.00
2022-08-01T11:33:41.585Z,2.90
2022-08-01T11:34:41.587Z,1.70
2022-08-01T11:35:41.571Z,2.10
2022-08-01T11:36:58.938Z,2.00
2022-08-01T11:37:41.571Z,2.10
2022-08-01T11:38:41.571Z,1.90
2022-08-01T11:39:41.571Z,1.60
2022-08-01T11:40:41.571Z,1.30
2022-08-01T11:41:41.573Z,2.50
2022-08-01T11:42:41.567Z,2.00
2022-08-01T11:43:41.568Z,1.30
2022-08-01T11:44:41.630Z,1.30
2022-08-01T11:45:41.567Z,2.00
2022-08-01T11:46:41.571Z,2.40
2022-08-01T11:47:41.565Z,1.40
2022-08-01T11:48:41.568Z,1.30
2022-08-01T11:49:41.747Z,2.10
2022-08-01T11:50:41.569Z,1.00
2022-08-01T11:51:41.566Z,0.90
2022-08-01T11:52:41.571Z,1.50
2022-08-01T11:53:41.565Z,1.80
2022-08-01T11:54:41.570Z,0.80
2022-08-01T11:55:41.566Z,1.40
2022-08-01T11:56:43.058Z,1.60
2022-08-01T11:57:41.564Z,2.40
2022-08-01T11:58:41.572Z,1.00
2022-08-01T12:00:02.466Z,1.40
2022-08-01T12:00:43.948Z,1.80
2022-08-01T12:01:41.569Z,2.10
2022-08-01T12:02:41.613Z,1.70
2022-08-01T12:03:41.569Z,1.40
2022-08-01T12:04:41.572Z,1.40
2022-08-01T12:05:43.230Z,1.50
2022-08-01T12:06:41.613Z,1.80
2022-08-01T12:07:41.580Z,1.80
2022-08-01T12:08:41.592Z,1.50
2022-08-01T12:09:41.573Z,1.00
2022-08-01T12:10:49.490Z,2.00
2022-08-01T12:11:41.573Z,2.80
2022-08-01T12:12:41.569Z,1.40
2022-08-01T12:13:41.570Z,1.40
2022-08-01T12:14:41.576Z,1.80
2022-08-01T12:15:41.569Z,1.70
2022-08-01T12:16:41.574Z,0.90
2022-08-01T12:17:41.622Z,1.70
2022-08-01T12:18:41.572Z,1.20
2022-08-01T12:19:41.574Z,2.00
2022-08-01T12:20:55.770Z,2.20
2022-08-01T12:21:41.573Z,3.10
2022-08-01T12:22:41.581Z,0.90
2022-08-01T12:23:41.582Z,0.70
2022-08-01T12:24:41.579Z,1.30
2022-08-01T12:25:41.567Z,1.90
2022-08-01T12:26:41.570Z,1.30
2022-08-01T12:27:41.568Z,2.00
2022-08-01T12:28:41.576Z,1.60
2022-08-01T12:29:41.575Z,1.20
2022-08-01T12:30:41.580Z,2.70
2022-08-01T12:31:41.579Z,1.60
2022-08-01T12:32:41.573Z,2.80
2022-08-01T12:33:41.578Z,3.40
2022-08-01T12:34:41.578Z,2.10
2022-08-01T12:35:41.579Z,1.60
2022-08-01T12:36:41.576Z,5.60
2022-08-01T12:37:41.573Z,1.60
2022-08-01T12:38:41.578Z,2.50
2022-08-01T12:39:41.582Z,2.40
2022-08-01T12:40:45.085Z,4.00
2022-08-01T12:41:41.578Z,1.50
2022-08-01T12:42:41.576Z,1.90
2022-08-01T12:43:41.579Z,1.00
2022-08-01T12:44:41.579Z,3.00
2022-08-01T12:45:56.394Z,2.00
2022-08-01T12:46:44.514Z,1.80
2022-08-01T12:47:41.586Z,2.60
2022-08-01T12:48:41.588Z,1.50
2022-08-01T12:49:41.583Z,2.70
2022-08-01T12:50:41.580Z,6.00
2022-08-01T12:51:41.585Z,2.90
2022-08-01T12:52:41.581Z,1.20
2022-08-01T12:53:41.863Z,3.10
2022-08-01T12:54:41.582Z,8.50
2022-08-01T12:55:44.498Z,10.90
2022-08-01T12:56:41.578Z,4.20
2022-08-01T12:57:41.585Z,5.50
2022-08-01T12:58:41.585Z,1.90
2022-08-01T12:59:41.589Z,1.80
2022-08-01T13:00:41.586Z,1.60
2022-08-01T13:01:41.626Z,1.90
2022-08-01T13:02:41.595Z,2.10
2022-08-01T13:03:41.597Z,2.40
2022-08-01T13:04:45.376Z,2.50
2022-08-01T13:05:41.582Z,2.40
2022-08-01T13:06:41.587Z,2.80
2022-08-01T13:07:45.652Z,2.20
2022-08-01T13:08:41.587Z,1.10
2022-08-01T13:09:41.586Z,2.20
2022-08-01T13:10:41.587Z,1.90
2022-08-01T13:11:53.937Z,1.70
2022-08-01T13:12:41.583Z,2.30
2022-08-01T13:13:41.587Z,1.40
2022-08-01T13:14:41.845Z,0.90
2022-08-01T13:15:42.053Z,2.80